createdAt,value
2018-09-13T00:01:59.057Z,9.70
2018-09-13T00:04:26.230Z,10.80
2018-09-13T00:06:53.358Z,10.70
2018-09-13T00:09:20.608Z,10.00
2018-09-13T00:11:47.750Z,10.30
2018-09-13T00:14:14.878Z,9.87
2018-09-13T00:16:42.009Z,9.70
2018-09-13T00:19:09.156Z,10.30
2018-09-13T00:21:36.299Z,9.23
2018-09-13T00:24:03.417Z,9.53
2018-09-13T00:26:30.525Z,9.57
2018-09-13T00:28:57.644Z,9.63
2018-09-13T00:31:24.797Z,9.50
2018-09-13T00:33:51.958Z,9.87
2018-09-13T00:36:19.087Z,9.03
2018-09-13T00:38:46.212Z,9.07
2018-09-13T00:41:13.328Z,9.60
2018-09-13T00:43:40.431Z,8.97
2018-09-13T00:46:07.559Z,9.67
2018-09-13T00:48:34.688Z,9.00
2018-09-13T00:51:01.801Z,9.53
2018-09-13T00:53:28.924Z,10.47
2018-09-13T00:55:56.049Z,11.30
2018-09-13T00:58:23.187Z,10.97
2018-09-13T01:00:50.306Z,9.40
2018-09-13T01:03:17.430Z,8.50
2018-09-13T01:05:44.566Z,8.63
2018-09-13T01:08:11.787Z,8.40
2018-09-13T01:10:38.885Z,8.63
2018-09-13T01:13:06.066Z,7.60
2018-09-13T01:15:33.181Z,8.83
2018-09-13T01:18:00.300Z,8.43
2018-09-13T01:20:27.422Z,8.83
2018-09-13T01:22:54.694Z,7.97
2018-09-13T01:25:21.814Z,8.80
2018-09-13T01:27:48.931Z,8.43
2018-09-13T01:30:16.060Z,8.20
2018-09-13T01:32:43.177Z,7.40
2018-09-13T01:35:10.309Z,8.63
2018-09-13T01:37:37.426Z,8.03
2018-09-13T01:40:04.571Z,8.20
2018-09-13T01:42:31.937Z,7.60
2018-09-13T01:44:59.078Z,7.20
2018-09-13T01:47:26.249Z,7.23
2018-09-13T01:49:53.416Z,7.90
2018-09-13T01:52:20.533Z,7.30
2018-09-13T01:54:48.925Z,7.47
2018-09-13T01:57:16.046Z,7.47
2018-09-13T01:59:43.270Z,7.60
2018-09-13T02:02:10.406Z,8.20
2018-09-13T02:04:37.522Z,7.90
2018-09-13T02:07:04.662Z,8.30
2018-09-13T02:09:31.868Z,8.60
2018-09-13T02:11:59.022Z,8.37
2018-09-13T02:14:26.186Z,7.93
2018-09-13T02:16:53.302Z,7.73
2018-09-13T02:19:20.410Z,7.63
2018-09-13T02:21:47.530Z,7.83
2018-09-13T02:24:14.652Z,8.00
2018-09-13T02:26:41.791Z,7.90
2018-09-13T02:29:08.901Z,7.80
2018-09-13T02:31:36.026Z,8.07
2018-09-13T02:34:03.148Z,8.10
2018-09-13T02:36:30.319Z,8.27
2018-09-13T02:38:57.446Z,8.20
2018-09-13T02:41:24.541Z,8.20
2018-09-13T02:43:51.823Z,7.50
2018-09-13T02:46:18.943Z,7.50
2018-09-13T02:48:46.069Z,8.17
2018-09-13T02:51:13.165Z,8.20
2018-09-13T02:53:40.292Z,7.13
2018-09-13T02:56:07.417Z,8.03
2018-09-13T02:58:34.569Z,8.03
2018-09-13T03:01:01.746Z,8.40
2018-09-13T03:03:28.879Z,7.40
2018-09-13T03:05:55.985Z,7.67
2018-09-13T03:08:23.165Z,7.47
2018-09-13T03:10:50.242Z,7.93
2018-09-13T03:13:17.407Z,7.90
2018-09-13T03:15:44.514Z,8.00
2018-09-13T03:18:11.641Z,8.63
2018-09-13T03:20:38.772Z,8.00
2018-09-13T03:23:05.926Z,7.80
2018-09-13T03:25:33.084Z,8.07
2018-09-13T03:28:00.264Z,7.77
2018-09-13T03:30:27.387Z,8.33
2018-09-13T03:32:54.506Z,7.87
2018-09-13T03:35:21.629Z,7.77
2018-09-13T03:37:48.742Z,7.80
2018-09-13T03:40:15.908Z,8.17
2018-09-13T03:42:43.042Z,8.37
2018-09-13T03:45:10.197Z,8.27
2018-09-13T03:47:37.405Z,8.40
2018-09-13T03:50:04.607Z,7.77
2018-09-13T03:52:32.004Z,8.13
2018-09-13T03:54:59.158Z,9.00
2018-09-13T03:57:26.344Z,8.53
2018-09-13T03:59:53.467Z,8.70
2018-09-13T04:02:20.590Z,8.57
2018-09-13T04:04:47.754Z,8.60
2018-09-13T04:07:14.955Z,8.17
2018-09-13T04:09:42.106Z,8.87
2018-09-13T04:12:09.242Z,8.83
2018-09-13T04:14:36.462Z,8.87
2018-09-13T04:17:03.602Z,9.40
2018-09-13T04:19:38.275Z,8.80
2018-09-13T04:22:05.489Z,9.10
2018-09-13T04:24:32.636Z,8.93
2018-09-13T04:26:59.754Z,8.83
2018-09-13T04:29:26.913Z,8.10
2018-09-13T04:31:54.040Z,8.20
2018-09-13T04:34:21.146Z,8.90
2018-09-13T04:36:48.267Z,9.13
2018-09-13T04:39:15.427Z,9.80
2018-09-13T04:41:42.554Z,8.90
2018-09-13T04:44:09.676Z,8.83
2018-09-13T04:46:36.811Z,9.23
2018-09-13T04:49:04.413Z,9.90
2018-09-13T04:51:31.656Z,9.40
2018-09-13T04:53:58.760Z,9.63
2018-09-13T04:56:26.181Z,11.30
2018-09-13T04:58:53.379Z,10.80
2018-09-13T05:01:20.503Z,11.40
2018-09-13T05:03:47.642Z,11.50
2018-09-13T05:06:14.763Z,11.80
2018-09-13T05:08:41.885Z,11.37
2018-09-13T05:11:09.025Z,13.13
2018-09-13T05:13:36.169Z,12.77
2018-09-13T05:16:03.326Z,13.03
2018-09-13T05:18:30.473Z,13.40
2018-09-13T05:20:57.630Z,13.67
2018-09-13T05:23:24.742Z,12.47
2018-09-13T05:25:51.962Z,12.83
2018-09-13T05:28:19.422Z,12.67
2018-09-13T05:30:46.786Z,13.47
2018-09-13T05:33:13.939Z,12.30
2018-09-13T05:35:43.092Z,12.90
2018-09-13T05:38:10.435Z,12.23
2018-09-13T05:40:37.605Z,12.70
2018-09-13T05:43:04.766Z,13.20
2018-09-13T05:45:31.962Z,12.87
2018-09-13T05:47:59.319Z,13.00
2018-09-13T05:50:26.443Z,12.70
2018-09-13T05:52:53.566Z,11.93
2018-09-13T05:55:20.697Z,12.10
2018-09-13T05:57:47.835Z,12.60
2018-09-13T06:00:15.572Z,11.53
2018-09-13T06:02:42.905Z,12.90
2018-09-13T06:05:10.210Z,11.27
2018-09-13T06:07:37.374Z,11.63
2018-09-13T06:10:04.622Z,10.80
2018-09-13T06:12:31.774Z,11.97
2018-09-13T06:14:58.902Z,11.00
2018-09-13T06:17:27.112Z,11.10
2018-09-13T06:19:54.341Z,11.33
2018-09-13T06:22:21.387Z,10.60
2018-09-13T06:24:48.497Z,10.83
2018-09-13T06:27:15.639Z,10.17
2018-09-13T06:29:42.768Z,10.67
2018-09-13T06:32:09.945Z,10.03
2018-09-13T06:34:37.085Z,10.70
2018-09-13T06:37:04.337Z,10.23
2018-09-13T06:39:31.525Z,9.93
2018-09-13T06:41:58.671Z,10.57
2018-09-13T06:44:25.994Z,10.17
2018-09-13T06:46:53.106Z,10.90
2018-09-13T06:49:20.217Z,11.20
2018-09-13T06:51:47.338Z,10.00
2018-09-13T06:54:14.639Z,9.53
2018-09-13T06:56:41.687Z,9.67
2018-09-13T06:59:08.825Z,9.30
2018-09-13T07:01:35.978Z,9.20
2018-09-13T07:04:03.170Z,9.13
2018-09-13T07:06:30.440Z,9.50
2018-09-13T07:08:57.764Z,9.10
2018-09-13T07:11:24.857Z,8.93
2018-09-13T07:13:52.019Z,8.30
2018-09-13T07:16:19.222Z,8.73
2018-09-13T07:18:46.337Z,7.50
2018-09-13T07:21:16.859Z,7.67
2018-09-13T07:23:44.936Z,6.97
2018-09-13T07:26:13.807Z,6.90
2018-09-13T07:28:42.110Z,6.20
2018-09-13T07:31:11.155Z,6.37
2018-09-13T07:33:38.640Z,6.00
2018-09-13T07:36:07.276Z,6.20
2018-09-13T07:38:39.734Z,5.90
2018-09-13T07:41:14.086Z,4.80
2018-09-13T07:43:41.197Z,5.40
2018-09-13T07:46:08.310Z,4.63
2018-09-13T07:48:35.480Z,4.57
2018-09-13T07:51:02.705Z,4.73
2018-09-13T07:53:30.006Z,4.37
2018-09-13T07:55:57.149Z,4.07
2018-09-13T07:58:24.301Z,4.53
2018-09-13T08:00:51.703Z,4.20
2018-09-13T08:03:18.837Z,4.17
2018-09-13T08:05:46.026Z,4.20
2018-09-13T08:08:13.129Z,4.03
2018-09-13T08:10:40.247Z,4.03
2018-09-13T08:13:07.361Z,3.60
2018-09-13T08:15:34.524Z,3.90
2018-09-13T08:18:01.671Z,3.77
2018-09-13T08:20:28.775Z,3.77
2018-09-13T08:22:55.906Z,3.63
2018-09-13T08:25:23.071Z,3.80
2018-09-13T08:27:50.201Z,3.60
2018-09-13T08:30:17.366Z,3.20
2018-09-13T08:32:44.501Z,3.23
2018-09-13T08:35:11.675Z,4.03
2018-09-13T08:37:38.866Z,3.20
2018-09-13T08:40:06.053Z,3.50
2018-09-13T08:42:33.216Z,3.90
2018-09-13T08:45:11.045Z,3.33
2018-09-13T08:47:38.223Z,3.13
2018-09-13T08:50:05.402Z,3.53
2018-09-13T08:52:32.758Z,2.97
2018-09-13T08:54:59.936Z,3.30
2018-09-13T08:57:27.145Z,2.97
2018-09-13T08:59:54.346Z,2.47
2018-09-13T09:02:21.539Z,3.13
2018-09-13T09:04:48.798Z,3.43
2018-09-13T09:07:16.094Z,3.23
2018-09-13T09:09:43.192Z,3.10
2018-09-13T09:12:10.348Z,2.87
2018-09-13T09:14:37.674Z,2.90
2018-09-13T09:17:04.991Z,3.00
2018-09-13T09:19:32.320Z,3.43
2018-09-13T09:21:59.537Z,3.60
2018-09-13T09:24:26.723Z,3.63
2018-09-13T09:26:53.890Z,3.37
2018-09-13T09:29:24.824Z,3.20
2018-09-13T09:31:52.167Z,3.63
2018-09-13T09:34:19.673Z,3.23
2018-09-13T09:36:46.821Z,3.33
2018-09-13T09:39:15.155Z,3.53
2018-09-13T09:41:46.930Z,3.30
2018-09-13T09:44:14.360Z,3.53
2018-09-13T09:46:41.423Z,3.13
2018-09-13T09:49:09.358Z,3.50
2018-09-13T09:51:36.495Z,3.80
2018-09-13T09:54:04.003Z,3.70
2018-09-13T09:56:31.876Z,4.20
2018-09-13T09:58:59.038Z,5.07
2018-09-13T10:01:31.515Z,5.43
2018-09-13T10:03:58.948Z,5.83
2018-09-13T10:06:26.158Z,5.00
2018-09-13T10:08:53.339Z,5.10
2018-09-13T10:11:20.574Z,4.57
2018-09-13T10:13:47.699Z,4.20
2018-09-13T10:16:20.282Z,5.27
2018-09-13T10:18:47.903Z,5.43
2018-09-13T10:21:20.558Z,4.97
2018-09-13T10:23:52.967Z,4.40
2018-09-13T10:26:25.538Z,4.03
2018-09-13T10:28:58.230Z,3.83
2018-09-13T10:31:30.768Z,3.50
2018-09-13T10:34:03.243Z,2.83
2018-09-13T10:36:35.878Z,3.50
2018-09-13T10:39:08.938Z,3.07
2018-09-13T10:41:42.616Z,3.07
2018-09-13T10:44:15.234Z,3.30
2018-09-13T10:46:42.385Z,3.20
2018-09-13T10:49:14.913Z,2.80
2018-09-13T10:51:47.471Z,3.10
2018-09-13T10:54:20.849Z,3.63
2018-09-13T10:56:48.095Z,3.00
2018-09-13T10:59:15.261Z,3.20
2018-09-13T11:01:43.451Z,3.43
2018-09-13T11:04:11.287Z,3.33
2018-09-13T11:06:39.100Z,3.40
2018-09-13T11:09:06.780Z,3.70
2018-09-13T11:11:34.301Z,3.90
2018-09-13T11:14:09.497Z,3.80
2018-09-13T11:16:39.078Z,3.67
2018-09-13T11:19:06.229Z,3.83
2018-09-13T11:21:33.922Z,3.77
2018-09-13T11:24:01.078Z,3.87
2018-09-13T11:26:28.210Z,4.03
2018-09-13T11:28:55.347Z,4.10
2018-09-13T11:31:22.550Z,4.97
2018-09-13T11:33:49.690Z,4.17
2018-09-13T11:36:16.816Z,4.53
2018-09-13T11:38:43.947Z,5.00
2018-09-13T11:41:11.113Z,5.50
2018-09-13T11:43:38.357Z,4.50
2018-09-13T11:46:05.486Z,4.57
2018-09-13T11:48:32.598Z,5.10
2018-09-13T11:50:59.722Z,4.60
2018-09-13T11:53:26.875Z,4.70
2018-09-13T11:55:54.003Z,5.00
2018-09-13T11:58:21.122Z,5.03
2018-09-13T12:00:48.250Z,5.20
2018-09-13T12:03:15.438Z,4.60
2018-09-13T12:05:42.614Z,5.30
2018-09-13T12:08:09.739Z,5.33
2018-09-13T12:10:36.876Z,5.10
2018-09-13T12:13:04.070Z,5.80
2018-09-13T12:15:31.707Z,5.87
2018-09-13T12:17:58.895Z,5.30
2018-09-13T12:20:26.400Z,5.70
2018-09-13T12:22:53.504Z,5.97
2018-09-13T12:25:20.726Z,6.00
2018-09-13T12:27:47.890Z,6.50
2018-09-13T12:30:15.000Z,7.10
2018-09-13T12:32:42.503Z,7.37
2018-09-13T12:35:09.563Z,7.80
2018-09-13T12:37:36.670Z,7.87
2018-09-13T12:40:04.120Z,8.20
2018-09-13T12:42:31.229Z,8.50
2018-09-13T12:44:58.450Z,10.07
2018-09-13T12:47:25.644Z,10.40
2018-09-13T12:49:52.783Z,10.10
2018-09-13T12:52:19.933Z,9.93
2018-09-13T12:54:46.990Z,10.20
2018-09-13T12:57:14.801Z,10.60
2018-09-13T12:59:41.909Z,11.00
2018-09-13T13:02:09.158Z,11.10
2018-09-13T13:04:36.518Z,11.97
2018-09-13T13:07:03.747Z,11.30
2018-09-13T13:09:30.955Z,11.03
2018-09-13T13:11:58.310Z,10.20
2018-09-13T13:14:25.439Z,10.60
2018-09-13T13:16:52.634Z,10.40
2018-09-13T13:19:19.732Z,12.57
2018-09-13T13:21:46.836Z,11.00
2018-09-13T13:24:13.953Z,11.37
2018-09-13T13:26:41.108Z,11.57
2018-09-13T13:29:08.350Z,11.83
2018-09-13T13:31:35.511Z,11.10
2018-09-13T13:34:02.663Z,11.83
2018-09-13T13:36:29.923Z,11.17
2018-09-13T13:38:56.923Z,11.97
2018-09-13T13:41:24.042Z,12.37
2018-09-13T13:43:51.173Z,11.70
2018-09-13T13:46:18.283Z,11.57
2018-09-13T13:48:45.626Z,11.50
2018-09-13T13:51:12.755Z,12.63
2018-09-13T13:53:39.872Z,11.27
2018-09-13T13:56:06.993Z,11.03
2018-09-13T13:58:34.150Z,11.50
2018-09-13T14:01:01.354Z,11.63
2018-09-13T14:03:28.520Z,12.00
2018-09-13T14:05:55.633Z,11.20
2018-09-13T14:08:22.898Z,11.80
2018-09-13T14:10:50.031Z,11.40
2018-09-13T14:13:17.215Z,11.00
2018-09-13T14:15:44.366Z,10.10
2018-09-13T14:18:14.240Z,10.53
2018-09-13T14:20:41.597Z,10.13
2018-09-13T14:23:09.713Z,10.90
2018-09-13T14:25:36.892Z,11.10
2018-09-13T14:28:04.111Z,11.60
2018-09-13T14:30:36.578Z,10.90
2018-09-13T14:33:05.810Z,11.80
2018-09-13T14:35:32.957Z,11.43
2018-09-13T14:38:03.346Z,11.20
2018-09-13T14:40:34.365Z,11.87
2018-09-13T14:43:03.904Z,11.57
2018-09-13T14:45:31.035Z,11.63
2018-09-13T14:47:58.747Z,12.50
2018-09-13T14:50:25.905Z,11.90
2018-09-13T14:52:53.505Z,12.43
2018-09-13T14:55:20.639Z,12.30
2018-09-13T14:57:47.855Z,11.37
2018-09-13T15:00:14.999Z,11.90
2018-09-13T15:02:42.242Z,12.80
2018-09-13T15:05:09.374Z,11.40
2018-09-13T15:07:36.543Z,12.23
2018-09-13T15:10:03.845Z,10.90
2018-09-13T15:12:30.943Z,11.53
2018-09-13T15:15:02.546Z,12.27
2018-09-13T15:17:29.657Z,11.57
2018-09-13T15:19:56.818Z,11.33
2018-09-13T15:22:23.950Z,10.60
2018-09-13T15:24:51.240Z,10.80
2018-09-13T15:27:18.358Z,10.97
2018-09-13T15:29:45.486Z,11.20
2018-09-13T15:32:12.692Z,11.70
2018-09-13T15:34:39.806Z,11.80
2018-09-13T15:37:06.984Z,10.63
2018-09-13T15:39:34.097Z,10.93
2018-09-13T15:42:01.246Z,9.90
2018-09-13T15:44:28.394Z,10.80
2018-09-13T15:46:55.607Z,10.30
2018-09-13T15:49:22.770Z,9.70
2018-09-13T15:51:49.919Z,11.30
2018-09-13T15:54:17.093Z,10.43
2018-09-13T15:56:44.238Z,11.07
2018-09-13T15:59:11.398Z,12.27
2018-09-13T16:01:38.555Z,11.60
2018-09-13T16:04:05.695Z,10.53
2018-09-13T16:06:32.807Z,10.93
2018-09-13T16:09:00.099Z,10.40
2018-09-13T16:11:27.305Z,10.63
2018-09-13T16:13:54.426Z,9.60
2018-09-13T16:16:23.815Z,9.40
2018-09-13T16:18:50.956Z,9.97
2018-09-13T16:21:18.166Z,10.00
2018-09-13T16:23:45.279Z,9.37
2018-09-13T16:26:12.523Z,10.27
2018-09-13T16:28:39.736Z,10.20
2018-09-13T16:31:06.892Z,10.00
2018-09-13T16:33:34.191Z,10.50
2018-09-13T16:36:01.843Z,10.10
2018-09-13T16:38:34.553Z,10.97
2018-09-13T16:41:08.042Z,10.33
2018-09-13T16:43:40.560Z,9.43
2018-09-13T16:46:19.750Z,10.23
2018-09-13T16:48:46.933Z,11.20
2018-09-13T16:51:15.321Z,10.77
2018-09-13T16:53:42.610Z,10.23
2018-09-13T16:56:09.758Z,10.80
2018-09-13T16:58:36.885Z,10.40
2018-09-13T17:01:04.005Z,10.60
2018-09-13T17:03:31.145Z,10.80
2018-09-13T17:05:58.266Z,10.77
2018-09-13T17:08:25.402Z,11.23
2018-09-13T17:10:53.059Z,11.17
2018-09-13T17:13:20.232Z,10.50
2018-09-13T17:15:47.515Z,10.67
2018-09-13T17:18:14.626Z,11.07
2018-09-13T17:20:41.970Z,11.20
2018-09-13T17:23:09.148Z,11.30
2018-09-13T17:25:36.342Z,9.83
2018-09-13T17:28:03.483Z,10.40
2018-09-13T17:30:30.665Z,11.07
2018-09-13T17:32:57.870Z,10.20
2018-09-13T17:35:25.071Z,11.30
2018-09-13T17:37:52.278Z,11.33
2018-09-13T17:40:19.571Z,11.47
2018-09-13T17:42:53.757Z,11.10
2018-09-13T17:45:21.186Z,10.73
2018-09-13T17:47:48.378Z,10.90
2018-09-13T17:50:15.681Z,11.40
2018-09-13T17:52:43.313Z,11.80
2018-09-13T17:58:06.552Z,11.60
2018-09-13T18:00:34.031Z,11.80
2018-09-13T18:03:01.350Z,11.70
2018-09-13T18:05:28.681Z,10.80
2018-09-13T18:07:56.000Z,11.33
2018-09-13T18:13:50.403Z,12.07
2018-09-13T18:18:54.529Z,12.20
2018-09-13T18:21:21.832Z,11.43
2018-09-13T18:23:48.958Z,11.73
2018-09-13T18:26:16.101Z,11.33
2018-09-13T18:28:43.222Z,11.67
2018-09-13T18:31:10.341Z,11.07
2018-09-13T18:33:37.478Z,11.20
2018-09-13T18:36:04.594Z,12.20
2018-09-13T18:38:31.791Z,12.00
2018-09-13T18:40:58.914Z,11.50
2018-09-13T18:43:26.146Z,12.13
2018-09-13T18:45:53.286Z,12.20
2018-09-13T18:48:20.454Z,11.73
2018-09-13T18:50:47.591Z,11.47
2018-09-13T18:53:15.098Z,11.60
2018-09-13T18:55:42.325Z,11.97
2018-09-13T18:58:09.478Z,11.80
2018-09-13T19:00:36.735Z,11.80
2018-09-13T19:03:04.563Z,12.00
2018-09-13T19:05:32.283Z,11.67
2018-09-13T19:07:59.548Z,12.30
2018-09-13T19:10:26.670Z,11.77
2018-09-13T19:12:55.060Z,12.60
2018-09-13T19:15:22.179Z,12.27
2018-09-13T19:17:49.328Z,11.47
2018-09-13T19:20:16.499Z,12.00
2018-09-13T19:22:43.755Z,12.73
2018-09-13T19:25:10.917Z,11.83
2018-09-13T19:27:38.594Z,12.20
2018-09-13T19:30:05.854Z,12.00
2018-09-13T19:32:33.051Z,11.43
2018-09-13T19:35:00.180Z,12.40
2018-09-13T19:37:27.335Z,12.03
2018-09-13T19:39:54.466Z,11.23
2018-09-13T19:42:21.698Z,12.00
2018-09-13T19:44:48.841Z,13.80
2018-09-13T19:47:15.961Z,12.20
2018-09-13T19:49:43.109Z,11.80
2018-09-13T19:52:10.233Z,12.67
2018-09-13T19:54:37.754Z,12.40
2018-09-13T19:57:05.186Z,12.20
2018-09-13T19:59:32.350Z,13.00
2018-09-13T20:01:59.499Z,12.63
2018-09-13T20:04:26.667Z,12.00
2018-09-13T20:06:53.861Z,12.13
2018-09-13T20:09:21.007Z,11.93
2018-09-13T20:11:48.169Z,12.53
2018-09-13T20:14:15.323Z,11.70
2018-09-13T20:16:42.488Z,12.33
2018-09-13T20:19:09.630Z,11.67
2018-09-13T20:21:36.808Z,12.30
2018-09-13T20:24:03.958Z,12.37
2018-09-13T20:26:31.093Z,12.33
2018-09-13T20:28:58.360Z,12.17
2018-09-13T20:31:25.399Z,11.90
2018-09-13T20:33:52.552Z,11.87
2018-09-13T20:36:19.682Z,12.07
2018-09-13T20:38:46.872Z,11.07
2018-09-13T20:41:13.991Z,11.57
2018-09-13T20:43:41.158Z,11.80
2018-09-13T20:46:08.309Z,12.23
2018-09-13T20:48:35.472Z,12.40
2018-09-13T20:51:02.657Z,11.50
2018-09-13T20:53:29.721Z,12.30
2018-09-13T20:55:56.871Z,12.90
2018-09-13T20:58:24.002Z,12.73
2018-09-13T21:00:51.192Z,12.10
2018-09-13T21:03:18.622Z,12.60
2018-09-13T21:05:45.778Z,11.73
2018-09-13T21:08:12.954Z,11.23
2018-09-13T21:10:40.392Z,11.70
2018-09-13T21:13:07.597Z,11.73
2018-09-13T21:15:34.734Z,11.70
2018-09-13T21:18:01.950Z,11.57
2018-09-13T21:20:29.511Z,11.93
2018-09-13T21:22:56.834Z,11.70
2018-09-13T21:25:24.079Z,12.57
2018-09-13T21:27:51.269Z,12.03
2018-09-13T21:30:18.405Z,13.27
2018-09-13T21:32:45.647Z,12.40
2018-09-13T21:35:12.790Z,12.80
2018-09-13T21:37:39.970Z,12.97
2018-09-13T21:40:07.108Z,12.80
2018-09-13T21:42:34.233Z,12.70
2018-09-13T21:45:01.375Z,12.93
2018-09-13T21:47:28.772Z,13.40
2018-09-13T21:49:55.886Z,13.17
2018-09-13T21:52:23.119Z,11.90
2018-09-13T21:54:50.277Z,13.10
2018-09-13T21:57:17.434Z,12.50
2018-09-13T21:59:44.583Z,13.90
2018-09-13T22:02:11.702Z,12.90
2018-09-13T22:04:38.849Z,13.03
2018-09-13T22:07:06.203Z,12.80
2018-09-13T22:09:33.350Z,12.33
2018-09-13T22:12:00.482Z,12.57
2018-09-13T22:14:27.647Z,13.20
2018-09-13T22:16:54.775Z,13.50
2018-09-13T22:19:21.909Z,12.73
2018-09-13T22:21:49.040Z,13.60
2018-09-13T22:24:16.263Z,13.57
2018-09-13T22:26:43.396Z,12.97
2018-09-13T22:29:10.635Z,13.30
2018-09-13T22:31:37.658Z,14.03
2018-09-13T22:34:06.798Z,12.73
2018-09-13T22:36:34.002Z,13.43
2018-09-13T22:39:01.141Z,12.67
2018-09-13T22:41:28.317Z,12.23
2018-09-13T22:43:56.526Z,12.27
2018-09-13T22:46:23.853Z,12.40
2018-09-13T22:48:50.978Z,12.47
2018-09-13T22:51:18.585Z,12.70
2018-09-13T22:53:45.715Z,12.00
2018-09-13T22:56:13.291Z,13.10
2018-09-13T22:58:40.442Z,11.87
2018-09-13T23:01:07.587Z,12.23
2018-09-13T23:03:34.744Z,12.83
2018-09-13T23:06:01.867Z,12.70
2018-09-13T23:08:29.003Z,13.60
2018-09-13T23:10:56.139Z,12.40
2018-09-13T23:13:23.541Z,12.70
2018-09-13T23:15:50.882Z,13.20
2018-09-13T23:18:17.976Z,12.83
2018-09-13T23:20:45.433Z,13.30
2018-09-13T23:23:12.719Z,14.03
2018-09-13T23:25:39.843Z,13.63
2018-09-13T23:28:06.987Z,13.77
2018-09-13T23:30:34.173Z,14.13
2018-09-13T23:33:01.282Z,13.60
2018-09-13T23:35:28.393Z,14.90
2018-09-13T23:37:55.529Z,14.40
2018-09-13T23:40:22.729Z,13.63
2018-09-13T23:42:49.962Z,13.73
2018-09-13T23:45:17.088Z,14.33
2018-09-13T23:47:44.247Z,13.53
2018-09-13T23:50:11.374Z,13.67
2018-09-13T23:52:38.499Z,12.87
2018-09-13T23:55:05.618Z,13.43
2018-09-13T23:57:32.825Z,14.73
2018-09-13T23:59:59.950Z,14.73
